Time;durP1;ratioP1;P1;durP2;ratioP2;P2;SDS_P1;SDS_P2;PMS_P1;PMS_P2;Temp;Humidity;BMP_temperature;BMP_pressure;BME280_temperature;BME280_humidity;BME280_pressure;Samples;Min_cycle;Max_cycle;Signal;HPM_P1;HPM_P2
2021/12/30 00:00:15;;;;;;;13.57;2.70;;;9.40;99.90;;;;;;20710915;28;20163;-45
2021/12/30 00:10:17;;;;;;;15.00;2.65;;;9.40;99.90;;;;;;20708195;28;20041;-45
2021/12/30 00:20:20;;;;;;;10.27;2.50;;;9.60;99.90;;;;;;20701367;28;20045;-45
2021/12/30 00:30:21;;;;;;;17.60;4.03;;;9.80;99.90;;;;;;20706788;28;20049;-45
2021/12/30 00:40:22;;;;;;;10.63;2.83;;;10.10;99.90;;;;;;20697276;28;20421;-45
2021/12/30 00:50:24;;;;;;;13.38;2.53;;;10.20;99.90;;;;;;20692949;28;20038;-45
2021/12/30 01:00:27;;;;;;;10.60;2.67;;;10.40;99.90;;;;;;20692294;28;20054;-45
2021/12/30 01:10:28;;;;;;;19.00;3.05;;;10.60;99.90;;;;;;20706622;28;20061;-45
2021/12/30 01:20:29;;;;;;;20.98;3.67;;;10.70;99.90;;;;;;20696909;28;20046;-45
2021/12/30 01:30:31;;;;;;;8.10;3.45;;;10.80;99.90;;;;;;20692673;28;20049;-45
2021/12/30 01:40:35;;;;;;;20.02;3.28;;;10.90;99.90;;;;;;20695743;28;20053;-45
2021/12/30 01:50:37;;;;;;;17.80;4.10;;;11.00;99.90;;;;;;20692840;28;20425;-45
2021/12/30 02:00:42;;;;;;;15.73;3.17;;;11.30;99.90;;;;;;20697297;28;20058;-45
2021/12/30 02:10:45;;;;;;;13.45;3.33;;;11.30;99.90;;;;;;20698908;28;20045;-45
2021/12/30 02:20:54;;;;;;;15.20;3.80;;;11.40;99.90;;;;;;20709178;28;20056;-45
2021/12/30 02:30:57;;;;;;;10.57;3.80;;;11.50;99.90;;;;;;20710751;28;20049;-45
2021/12/30 02:41:00;;;;;;;12.48;5.28;;;11.60;99.90;;;;;;20716099;28;20094;-45
2021/12/30 02:51:05;;;;;;;9.85;2.90;;;11.70;99.90;;;;;;20706756;28;20045;-45
2021/12/30 03:01:20;;;;;;;7.38;3.35;;;11.70;99.90;;;;;;20707058;28;20448;-45
2021/12/30 03:11:24;;;;;;;10.57;5.03;;;12.00;99.90;;;;;;20718025;28;20049;-45
2021/12/30 03:21:26;;;;;;;11.18;3.83;;;12.00;99.90;;;;;;20699962;28;20042;-45
2021/12/30 03:31:27;;;;;;;8.68;2.92;;;11.90;99.90;;;;;;20693094;28;20061;-46
2021/12/30 03:41:33;;;;;;;10.07;2.88;;;12.00;99.90;;;;;;20708559;28;20059;-46
2021/12/30 03:51:40;;;;;;;9.43;2.85;;;12.00;99.90;;;;;;20695801;28;20124;-45
2021/12/30 04:01:42;;;;;;;7.60;3.05;;;12.00;99.90;;;;;;20702403;28;20073;-46
2021/12/30 04:11:43;;;;;;;9.90;3.80;;;12.10;99.90;;;;;;20716148;28;20034;-45
2021/12/30 04:21:44;;;;;;;8.05;3.28;;;12.10;99.90;;;;;;20688789;28;20050;-45
2021/12/30 04:31:46;;;;;;;9.82;2.60;;;12.10;99.90;;;;;;20686224;28;20403;-45
2021/12/30 04:41:48;;;;;;;10.80;2.83;;;12.10;99.90;;;;;;20695611;28;20050;-45
2021/12/30 04:51:49;;;;;;;11.98;3.65;;;12.00;99.90;;;;;;20693268;28;20049;-45
2021/12/30 05:01:50;;;;;;;8.75;3.60;;;12.10;99.90;;;;;;20693446;28;20049;-45
2021/12/30 05:11:51;;;;;;;10.32;3.33;;;12.00;99.90;;;;;;20693398;28;20045;-45
2021/12/30 05:21:52;;;;;;;12.10;3.58;;;12.10;99.90;;;;;;20689608;28;20057;-45
2021/12/30 05:31:53;;;;;;;12.38;4.00;;;12.10;99.90;;;;;;20687384;28;20359;-45
2021/12/30 05:41:56;;;;;;;11.35;3.45;;;12.10;99.90;;;;;;20679991;28;20047;-45
2021/12/30 05:51:58;;;;;;;9.82;3.30;;;12.10;99.90;;;;;;20706041;28;20048;-45
2021/12/30 06:01:59;;;;;;;12.20;3.22;;;12.20;99.90;;;;;;20705298;28;20049;-45
2021/12/30 06:12:00;;;;;;;5.35;1.80;;;12.30;99.90;;;;;;20707644;28;20097;-45
2021/12/30 06:22:01;;;;;;;4.20;1.40;;;12.30;99.90;;;;;;20713524;28;20045;-45
2021/12/30 06:32:05;;;;;;;3.75;1.63;;;12.50;99.90;;;;;;20678559;28;20045;-45
2021/12/30 06:42:07;;;;;;;5.03;2.20;;;12.60;99.90;;;;;;20701678;28;20053;-45
2021/12/30 06:52:10;;;;;;;3.42;1.73;;;12.50;99.90;;;;;;20691868;28;20030;-45
2021/12/30 07:02:13;;;;;;;5.30;2.13;;;12.40;99.90;;;;;;20697819;28;20494;-45
2021/12/30 07:12:14;;;;;;;3.90;1.98;;;12.40;99.90;;;;;;20694878;28;20041;-45
2021/12/30 07:22:16;;;;;;;5.05;1.38;;;12.40;99.90;;;;;;20696585;28;20041;-45
2021/12/30 07:32:17;;;;;;;2.67;0.98;;;12.40;99.90;;;;;;20692162;28;20038;-46
2021/12/30 07:42:18;;;;;;;3.22;1.60;;;12.30;99.90;;;;;;20700196;28;20062;-45
2021/12/30 07:52:19;;;;;;;7.43;2.20;;;12.30;99.90;;;;;;20692634;28;20301;-45
2021/12/30 08:02:21;;;;;;;5.57;1.77;;;12.40;99.90;;;;;;20697571;28;20038;-45
2021/12/30 08:12:22;;;;;;;4.70;1.50;;;12.40;99.90;;;;;;20692780;28;20545;-45
2021/12/30 08:22:24;;;;;;;9.60;1.95;;;12.50;99.90;;;;;;20689471;28;20054;-46
2021/12/30 08:32:25;;;;;;;12.50;2.17;;;12.60;99.90;;;;;;20685678;28;21332;-45
2021/12/30 08:42:28;;;;;;;6.55;1.98;;;12.50;99.90;;;;;;20686535;28;20037;-45
2021/12/30 08:52:30;;;;;;;10.35;2.22;;;12.50;99.90;;;;;;20697403;28;20552;-45
2021/12/30 09:02:31;;;;;;;7.53;2.10;;;12.50;99.90;;;;;;20683372;28;20089;-46
2021/12/30 09:12:32;;;;;;;13.30;2.60;;;12.60;99.90;;;;;;20657837;28;20041;-45
2021/12/30 09:22:34;;;;;;;10.35;1.50;;;12.60;99.90;;;;;;20683367;28;20057;-45
2021/12/30 09:32:36;;;;;;;10.38;2.42;;;12.70;99.90;;;;;;20691012;28;20406;-46
2021/12/30 09:42:39;;;;;;;8.73;1.55;;;12.80;99.90;;;;;;20684319;28;20171;-46
2021/12/30 09:52:40;;;;;;;11.63;1.92;;;12.90;99.90;;;;;;20707633;28;20034;-45
2021/12/30 10:02:43;;;;;;;9.27;2.10;;;13.00;99.90;;;;;;20698852;28;20050;-44
2021/12/30 10:12:45;;;;;;;11.13;1.70;;;13.10;99.90;;;;;;20712835;28;20041;-46
2021/12/30 10:22:49;;;;;;;3.95;1.00;;;13.10;99.90;;;;;;20704446;28;20673;-46
2021/12/30 10:32:50;;;;;;;12.73;1.92;;;12.90;99.90;;;;;;20704577;28;20042;-45
2021/12/30 10:43:13;;;;;;;5.80;1.30;;;12.90;99.90;;;;;;20719789;28;20129;-45
2021/12/30 10:53:27;;;;;;;6.82;1.23;;;12.90;99.90;;;;;;20725744;28;20042;-45
2021/12/30 11:03:28;;;;;;;6.70;1.90;;;13.00;99.90;;;;;;20711971;28;21560;-45
2021/12/30 11:13:30;;;;;;;4.20;1.88;;;12.90;99.90;;;;;;20711744;28;20045;-46
2021/12/30 11:23:31;;;;;;;16.15;1.60;;;12.90;99.90;;;;;;20720051;28;20045;-46
2021/12/30 11:33:32;;;;;;;6.53;1.55;;;12.80;99.90;;;;;;20707509;28;20489;-45
2021/12/30 11:43:45;;;;;;;9.70;1.52;;;12.70;99.90;;;;;;20708696;28;20386;-45
2021/12/30 11:53:47;;;;;;;3.00;1.02;;;12.70;99.90;;;;;;20702138;28;20072;-45
2021/12/30 12:03:55;;;;;;;4.15;1.13;;;12.90;99.90;;;;;;20716078;28;20049;-45
2021/12/30 12:14:16;;;;;;;4.20;1.55;;;12.90;99.90;;;;;;20719935;28;20516;-45
2021/12/30 12:24:20;;;;;;;9.07;2.17;;;12.90;99.90;;;;;;20719498;28;20050;-46
2021/12/30 12:34:40;;;;;;;5.70;1.15;;;13.00;99.90;;;;;;20724986;28;20076;-46
2021/12/30 12:44:44;;;;;;;3.38;1.30;;;13.10;99.90;;;;;;20723058;28;20046;-45
2021/12/30 12:54:48;;;;;;;3.25;1.55;;;13.10;99.90;;;;;;20736739;28;20037;-45
2021/12/30 13:04:49;;;;;;;7.55;1.13;;;13.20;99.90;;;;;;20736175;28;20041;-45
2021/12/30 13:14:50;;;;;;;9.15;1.50;;;13.20;99.90;;;;;;20723726;28;20050;-45
2021/12/30 13:24:56;;;;;;;4.05;1.15;;;13.20;99.90;;;;;;20730865;28;20054;-46
2021/12/30 13:35:05;;;;;;;5.20;1.10;;;13.30;99.90;;;;;;20726859;28;20053;-46
2021/12/30 13:45:07;;;;;;;8.57;1.77;;;13.40;99.90;;;;;;20722769;28;20046;-45
2021/12/30 13:55:21;;;;;;;5.20;1.27;;;13.30;99.90;;;;;;20714656;28;20037;-46
2021/12/30 14:05:23;;;;;;;10.63;2.33;;;13.20;99.90;;;;;;20708492;28;20379;-46
2021/12/30 14:15:24;;;;;;;7.70;1.52;;;13.20;99.90;;;;;;20718229;28;20419;-45
2021/12/30 14:25:28;;;;;;;4.72;1.63;;;13.10;99.90;;;;;;20747889;28;20395;-46
2021/12/30 14:35:29;;;;;;;7.40;2.78;;;13.10;99.90;;;;;;20737669;28;20512;-46
2021/12/30 14:45:38;;;;;;;4.03;1.23;;;13.10;99.90;;;;;;20741961;28;20050;-46
2021/12/30 14:55:40;;;;;;;6.28;1.85;;;13.10;99.90;;;;;;20745935;28;20056;-46
2021/12/30 15:05:42;;;;;;;9.77;3.08;;;13.10;99.90;;;;;;20748255;28;20050;-46
2021/12/30 15:15:45;;;;;;;13.35;2.60;;;13.10;99.90;;;;;;20739085;28;20060;-45
2021/12/30 15:25:47;;;;;;;12.80;4.55;;;13.10;99.90;;;;;;20739567;28;20536;-46
2021/12/30 15:35:49;;;;;;;5.22;2.58;;;12.90;99.90;;;;;;20745941;28;20088;-46
2021/12/30 15:45:51;;;;;;;13.18;2.80;;;12.90;99.90;;;;;;20732053;28;20052;-45
2021/12/30 15:55:52;;;;;;;6.85;2.25;;;12.90;99.90;;;;;;20733792;28;20038;-45
2021/12/30 16:05:53;;;;;;;4.30;2.15;;;13.00;99.90;;;;;;20738189;28;20085;-45
2021/12/30 16:15:54;;;;;;;5.28;1.98;;;13.00;99.90;;;;;;20740081;28;20041;-46
2021/12/30 16:25:56;;;;;;;6.88;1.80;;;13.00;99.90;;;;;;20738348;28;20061;-46
2021/12/30 16:35:57;;;;;;;4.88;1.50;;;13.00;99.90;;;;;;20721082;28;20037;-46
2021/12/30 16:45:59;;;;;;;10.98;2.95;;;13.00;99.90;;;;;;20716764;28;20046;-45
2021/12/30 16:56:00;;;;;;;7.25;2.22;;;13.00;99.90;;;;;;20707186;28;20437;-46
2021/12/30 17:06:02;;;;;;;8.50;3.15;;;13.00;99.90;;;;;;20706706;28;20269;-46
2021/12/30 17:16:03;;;;;;;8.82;3.30;;;12.90;99.90;;;;;;20702902;28;20041;-46
2021/12/30 17:26:05;;;;;;;5.65;2.65;;;12.90;99.90;;;;;;20707744;28;20549;-46
2021/12/30 17:36:06;;;;;;;9.52;2.05;;;13.00;99.90;;;;;;20709999;28;20034;-46
2021/12/30 17:46:07;;;;;;;6.38;2.50;;;13.10;99.90;;;;;;20757302;28;20046;-46
2021/12/30 17:56:08;;;;;;;4.25;1.15;;;13.10;99.90;;;;;;20769993;28;20070;-46
2021/12/30 18:06:11;;;;;;;5.05;1.45;;;13.20;99.90;;;;;;20755707;28;20437;-46
2021/12/30 18:16:13;;;;;;;6.65;0.95;;;13.30;99.90;;;;;;20750207;28;20512;-46
2021/12/30 18:26:14;;;;;;;3.13;1.10;;;13.30;99.90;;;;;;20745678;28;20315;-46
2021/12/30 18:36:15;;;;;;;3.05;0.77;;;13.30;99.90;;;;;;20752043;28;20540;-46
2021/12/30 18:46:17;;;;;;;6.90;1.13;;;13.40;99.90;;;;;;20741329;28;20061;-45
2021/12/30 18:56:18;;;;;;;3.58;1.00;;;13.40;99.90;;;;;;20736880;28;20061;-46
2021/12/30 19:06:20;;;;;;;2.20;0.60;;;13.50;99.90;;;;;;20744172;28;20045;-46
2021/12/30 19:16:22;;;;;;;11.93;1.65;;;13.50;99.90;;;;;;20731109;28;20065;-45
2021/12/30 19:26:24;;;;;;;9.02;2.83;;;13.50;99.90;;;;;;20733157;28;20494;-46
2021/12/30 19:36:27;;;;;;;2.67;1.00;;;13.40;99.90;;;;;;20743668;28;20080;-46
2021/12/30 19:46:35;;;;;;;4.85;1.73;;;13.30;99.90;;;;;;20737221;28;21566;-45
2021/12/30 19:56:36;;;;;;;7.80;1.30;;;13.20;99.90;;;;;;20743904;28;20041;-46
2021/12/30 20:06:38;;;;;;;13.93;2.45;;;13.30;99.90;;;;;;20740643;28;20061;-47
2021/12/30 20:16:43;;;;;;;4.18;0.95;;;13.20;99.90;;;;;;20734516;28;20046;-47
2021/12/30 20:26:44;;;;;;;9.85;1.30;;;13.30;99.90;;;;;;20735698;28;20050;-46
2021/12/30 20:36:46;;;;;;;3.33;1.15;;;13.40;99.90;;;;;;20741113;28;20045;-47
2021/12/30 20:46:47;;;;;;;4.88;1.00;;;13.40;99.90;;;;;;20732797;28;20310;-46
2021/12/30 20:56:48;;;;;;;2.38;0.88;;;13.40;99.90;;;;;;20741547;28;20433;-46
2021/12/30 21:06:53;;;;;;;3.03;0.50;;;13.40;99.90;;;;;;20721140;28;20046;-46
2021/12/30 21:16:55;;;;;;;2.70;0.85;;;13.60;99.90;;;;;;20717882;28;20050;-46
2021/12/30 21:26:56;;;;;;;4.15;0.57;;;13.60;99.90;;;;;;20722683;28;20049;-46
2021/12/30 21:36:57;;;;;;;3.58;0.63;;;13.60;99.90;;;;;;20731595;28;20490;-46
2021/12/30 21:46:58;;;;;;;5.72;0.50;;;13.50;99.90;;;;;;20732533;28;20073;-46
2021/12/30 21:57:01;;;;;;;3.15;0.85;;;13.30;99.90;;;;;;20727831;28;20049;-46
2021/12/30 22:07:03;;;;;;;2.17;0.98;;;13.50;99.90;;;;;;20718131;28;20041;-46
2021/12/30 22:17:04;;;;;;;2.85;0.82;;;13.50;99.90;;;;;;20718261;28;20501;-45
2021/12/30 22:27:05;;;;;;;2.95;0.90;;;13.50;99.90;;;;;;20731166;28;20038;-45
2021/12/30 22:37:07;;;;;;;3.85;1.67;;;13.60;99.90;;;;;;20721203;28;20056;-46
2021/12/30 22:47:08;;;;;;;6.57;1.70;;;13.50;99.90;;;;;;20716365;28;20123;-46
2021/12/30 22:57:09;;;;;;;6.25;1.67;;;13.50;99.90;;;;;;20716606;28;20034;-46
2021/12/30 23:07:10;;;;;;;8.20;1.27;;;13.40;99.90;;;;;;20723566;28;20041;-46
2021/12/30 23:17:11;;;;;;;4.55;1.15;;;13.30;99.90;;;;;;20726533;28;20406;-46
2021/12/30 23:27:13;;;;;;;2.13;0.73;;;13.40;99.90;;;;;;20711614;28;20046;-46
2021/12/30 23:37:14;;;;;;;4.30;0.80;;;13.60;99.90;;;;;;20713923;28;20050;-46
2021/12/30 23:47:15;;;;;;;7.30;1.70;;;13.70;99.90;;;;;;20704259;28;20077;-46
2021/12/30 23:57:17;;;;;;;4.63;1.30;;;13.80;99.90;;;;;;20718636;28;22658;-46
